createdAt,value
2019-04-29T00:00:27.947Z,19.64
2019-04-29T00:01:27.874Z,19.66
2019-04-29T00:02:27.853Z,19.66
2019-04-29T00:03:27.845Z,19.71
2019-04-29T00:04:27.835Z,19.62
2019-04-29T00:05:27.824Z,19.62
2019-04-29T00:06:27.843Z,19.63
2019-04-29T00:07:27.798Z,19.64
2019-04-29T00:08:27.808Z,19.64
2019-04-29T00:09:30.863Z,19.66
2019-04-29T00:10:27.774Z,19.67
2019-04-29T00:11:27.774Z,19.63
2019-04-29T00:12:27.750Z,19.70
2019-04-29T00:13:27.738Z,19.70
2019-04-29T00:14:27.737Z,19.62
2019-04-29T00:15:27.722Z,19.62
2019-04-29T00:16:27.731Z,19.60
2019-04-29T00:17:27.702Z,19.64
2019-04-29T00:18:27.686Z,19.64
2019-04-29T00:19:27.680Z,19.70
2019-04-29T00:20:27.669Z,19.71
2019-04-29T00:21:27.654Z,19.63
2019-04-29T00:22:27.662Z,19.71
2019-04-29T00:23:27.628Z,19.60
2019-04-29T00:24:27.630Z,19.66
2019-04-29T00:25:27.612Z,19.71
2019-04-29T00:26:27.603Z,19.62
2019-04-29T00:27:27.607Z,19.66
2019-04-29T00:28:27.589Z,19.62
2019-04-29T00:29:27.607Z,19.59
2019-04-29T00:30:27.566Z,19.60
2019-04-29T00:31:27.599Z,19.62
2019-04-29T00:32:27.597Z,19.63
2019-04-29T00:33:27.582Z,19.59
2019-04-29T00:34:27.520Z,19.56
2019-04-29T00:35:27.512Z,19.62
2019-04-29T00:36:27.500Z,19.57
2019-04-29T00:37:27.867Z,19.57
2019-04-29T00:38:27.495Z,19.56
2019-04-29T00:39:27.463Z,19.56
2019-04-29T00:40:27.582Z,19.62
2019-04-29T00:41:27.532Z,19.57
2019-04-29T00:42:27.590Z,19.49
2019-04-29T00:43:27.464Z,19.59
2019-04-29T00:44:27.595Z,19.59
2019-04-29T00:45:27.516Z,19.56
2019-04-29T00:46:27.393Z,19.57
2019-04-29T00:47:27.396Z,19.49
2019-04-29T00:48:27.378Z,19.63
2019-04-29T00:49:27.377Z,19.48
2019-04-29T00:50:27.353Z,19.48
2019-04-29T00:51:28.200Z,19.53
2019-04-29T00:52:27.345Z,19.56
2019-04-29T00:53:27.321Z,19.44
2019-04-29T00:54:27.310Z,19.45
2019-04-29T00:55:27.303Z,19.60
2019-04-29T00:56:27.286Z,19.55
2019-04-29T00:57:27.316Z,19.62
2019-04-29T00:58:27.267Z,19.57
2019-04-29T00:59:27.259Z,19.48
2019-04-29T01:00:27.249Z,19.45
2019-04-29T01:01:27.234Z,19.55
2019-04-29T01:02:27.239Z,19.57
2019-04-29T01:03:27.216Z,19.53
2019-04-29T01:04:27.203Z,19.52
2019-04-29T01:05:27.194Z,19.52
2019-04-29T01:06:27.186Z,19.49
2019-04-29T01:07:27.185Z,19.49
2019-04-29T01:08:27.162Z,19.48
2019-04-29T01:09:27.155Z,19.45
2019-04-29T01:10:27.140Z,19.49
2019-04-29T01:11:27.133Z,19.48
2019-04-29T01:12:27.147Z,19.49
2019-04-29T01:13:27.112Z,19.42
2019-04-29T01:14:27.111Z,19.42
2019-04-29T01:15:27.095Z,19.49
2019-04-29T01:16:27.079Z,19.47
2019-04-29T01:17:27.128Z,19.47
2019-04-29T01:18:27.058Z,19.47
2019-04-29T01:19:27.051Z,19.48
2019-04-29T01:20:27.039Z,19.47
2019-04-29T01:21:27.031Z,19.56
2019-04-29T01:22:27.039Z,19.48
2019-04-29T01:23:27.012Z,19.56
2019-04-29T01:24:26.999Z,19.48
2019-04-29T01:25:26.991Z,19.45
2019-04-29T01:26:26.975Z,19.45
2019-04-29T01:27:26.980Z,19.56
2019-04-29T01:28:26.953Z,19.53
2019-04-29T01:29:26.946Z,19.52
2019-04-29T01:30:26.937Z,19.44
2019-04-29T01:31:26.926Z,19.53
2019-04-29T01:32:26.933Z,19.52
2019-04-29T01:33:26.901Z,19.55
2019-04-29T01:34:26.897Z,19.52
2019-04-29T01:35:26.883Z,19.56
2019-04-29T01:36:26.869Z,19.67
2019-04-29T01:37:26.856Z,19.81
2019-04-29T01:38:26.876Z,20.12
2019-04-29T01:39:26.854Z,20.24
2019-04-29T01:40:26.830Z,20.71
2019-04-29T01:41:26.824Z,21.01
2019-04-29T01:42:26.812Z,21.29
2019-04-29T01:43:26.808Z,21.60
2019-04-29T01:44:26.786Z,21.85
2019-04-29T01:45:26.775Z,22.15
2019-04-29T01:46:26.773Z,22.31
2019-04-29T01:47:26.755Z,22.52
2019-04-29T01:48:26.757Z,22.65
2019-04-29T01:49:26.740Z,22.93
2019-04-29T01:50:26.720Z,23.10
2019-04-29T01:51:26.712Z,23.13
2019-04-29T01:52:26.698Z,23.16
2019-04-29T01:53:26.708Z,23.28
2019-04-29T01:54:26.677Z,23.25
2019-04-29T01:55:26.664Z,23.44
2019-04-29T01:56:26.653Z,23.39
2019-04-29T01:57:26.668Z,23.37
2019-04-29T01:58:26.651Z,23.37
2019-04-29T01:59:26.625Z,23.29
2019-04-29T02:00:26.617Z,23.23
2019-04-29T02:01:26.604Z,23.25
2019-04-29T02:02:26.591Z,23.32
2019-04-29T02:03:26.593Z,23.29
2019-04-29T02:04:26.571Z,23.26
2019-04-29T02:05:26.582Z,23.20
2019-04-29T02:06:26.546Z,23.06
2019-04-29T02:07:26.540Z,23.04
2019-04-29T02:08:26.591Z,22.99
2019-04-29T02:09:26.515Z,23.04
2019-04-29T02:10:26.508Z,22.92
2019-04-29T02:11:26.498Z,22.93
2019-04-29T02:12:26.488Z,22.80
2019-04-29T02:13:26.490Z,22.71
2019-04-29T02:14:26.462Z,22.67
2019-04-29T02:15:26.457Z,22.77
2019-04-29T02:16:26.469Z,22.58
2019-04-29T02:17:26.435Z,22.61
2019-04-29T02:18:26.432Z,22.47
2019-04-29T02:19:26.412Z,22.46
2019-04-29T02:20:26.401Z,22.49
2019-04-29T02:21:26.413Z,22.34
2019-04-29T02:22:26.377Z,22.26
2019-04-29T02:23:26.383Z,22.22
2019-04-29T02:24:26.359Z,22.14
2019-04-29T02:25:26.349Z,22.08
2019-04-29T02:26:26.336Z,22.06
2019-04-29T02:27:26.326Z,22.01
2019-04-29T02:28:26.331Z,21.94
2019-04-29T02:29:26.303Z,21.85
2019-04-29T02:30:26.296Z,21.70
2019-04-29T02:31:26.289Z,21.78
2019-04-29T02:32:26.271Z,21.63
2019-04-29T02:33:26.274Z,21.56
2019-04-29T02:34:26.260Z,21.62
2019-04-29T02:35:26.241Z,21.59
2019-04-29T02:36:29.725Z,21.47
2019-04-29T02:37:26.225Z,21.44
2019-04-29T02:38:26.226Z,21.41
2019-04-29T02:39:26.206Z,21.37
2019-04-29T02:40:26.191Z,21.33
2019-04-29T02:41:26.179Z,21.28
2019-04-29T02:42:26.165Z,21.25
2019-04-29T02:43:26.177Z,21.19
2019-04-29T02:44:26.145Z,21.23
2019-04-29T02:45:26.137Z,21.20
2019-04-29T02:46:26.126Z,21.07
2019-04-29T02:47:26.116Z,21.05
2019-04-29T02:48:30.021Z,21.03
2019-04-29T02:49:27.091Z,21.04
2019-04-29T02:50:26.086Z,21.00
2019-04-29T02:51:26.071Z,20.88
2019-04-29T02:52:26.072Z,20.83
2019-04-29T02:53:26.065Z,20.80
2019-04-29T02:54:26.124Z,20.88
2019-04-29T02:55:26.036Z,20.78
2019-04-29T02:56:26.020Z,20.71
2019-04-29T02:57:26.007Z,20.68
2019-04-29T02:58:25.999Z,20.66
2019-04-29T02:59:26.003Z,20.64
2019-04-29T03:00:25.978Z,20.55
2019-04-29T03:01:25.966Z,20.53
2019-04-29T03:02:25.957Z,20.46
2019-04-29T03:03:25.953Z,20.46
2019-04-29T03:04:25.950Z,20.42
2019-04-29T03:05:25.924Z,20.52
2019-04-29T03:06:25.946Z,20.36
2019-04-29T03:07:25.927Z,20.29
2019-04-29T03:08:25.897Z,20.26
2019-04-29T03:09:25.895Z,20.29
2019-04-29T03:10:25.873Z,20.29
2019-04-29T03:11:25.868Z,20.15
2019-04-29T03:12:25.915Z,20.15
2019-04-29T03:13:25.842Z,20.17
2019-04-29T03:14:25.849Z,20.15
2019-04-29T03:15:25.854Z,20.11
2019-04-29T03:16:25.810Z,20.11
2019-04-29T03:17:25.800Z,20.10
2019-04-29T03:18:25.785Z,20.08
2019-04-29T03:19:25.787Z,20.08
2019-04-29T03:20:25.768Z,20.04
2019-04-29T03:21:25.753Z,20.07
2019-04-29T03:22:25.747Z,20.08
2019-04-29T03:23:25.731Z,20.00
2019-04-29T03:24:25.734Z,20.07
2019-04-29T03:25:25.707Z,20.04
2019-04-29T03:26:25.705Z,20.08
2019-04-29T03:27:25.688Z,20.00
2019-04-29T03:28:25.681Z,19.96
2019-04-29T03:29:25.681Z,19.96
2019-04-29T03:30:25.730Z,19.89
2019-04-29T03:31:25.650Z,19.93
2019-04-29T03:32:25.643Z,19.99
2019-04-29T03:33:25.625Z,19.94
2019-04-29T03:34:25.650Z,19.93
2019-04-29T03:35:25.604Z,19.87
2019-04-29T03:36:25.596Z,19.93
2019-04-29T03:37:25.578Z,19.89
2019-04-29T03:38:25.583Z,19.90
2019-04-29T03:39:25.591Z,19.81
2019-04-29T03:40:25.550Z,19.79
2019-04-29T03:41:25.534Z,19.89
2019-04-29T03:42:25.526Z,19.82
2019-04-29T03:43:25.528Z,19.79
2019-04-29T03:44:25.529Z,19.79
2019-04-29T03:45:25.498Z,19.84
2019-04-29T03:46:25.480Z,19.82
2019-04-29T03:47:25.475Z,19.79
2019-04-29T03:48:25.462Z,19.79
2019-04-29T03:49:25.449Z,19.71
2019-04-29T03:50:25.447Z,19.74
2019-04-29T03:51:25.440Z,19.79
2019-04-29T03:52:25.421Z,19.71
2019-04-29T03:53:28.177Z,19.70
2019-04-29T03:54:25.392Z,19.78
2019-04-29T03:55:38.916Z,19.70
2019-04-29T03:56:26.372Z,19.72
2019-04-29T03:57:25.368Z,19.67
2019-04-29T03:58:25.359Z,19.72
2019-04-29T03:59:25.338Z,19.63
2019-04-29T04:00:25.337Z,19.78
2019-04-29T04:01:25.320Z,19.66
2019-04-29T04:02:25.307Z,19.66
2019-04-29T04:03:25.302Z,19.66
2019-04-29T04:04:25.295Z,19.62
2019-04-29T04:05:25.290Z,19.64
2019-04-29T04:06:25.263Z,19.64
2019-04-29T04:07:25.254Z,19.64
2019-04-29T04:08:25.242Z,19.62
2019-04-29T04:09:25.235Z,19.63
2019-04-29T04:10:25.237Z,19.63
2019-04-29T04:11:25.207Z,19.60
2019-04-29T04:12:25.203Z,19.59
2019-04-29T04:13:25.191Z,19.56
2019-04-29T04:14:25.178Z,19.56
2019-04-29T04:15:25.203Z,19.57
2019-04-29T04:16:25.167Z,19.59
2019-04-29T04:17:25.150Z,19.57
2019-04-29T04:18:25.143Z,19.49
2019-04-29T04:19:25.130Z,19.57
2019-04-29T04:20:25.127Z,19.52
2019-04-29T04:21:25.108Z,19.53
2019-04-29T04:22:25.098Z,19.49
2019-04-29T04:23:25.087Z,19.48
2019-04-29T04:24:25.109Z,19.57
2019-04-29T04:25:25.071Z,19.59
2019-04-29T04:26:25.060Z,19.66
2019-04-29T04:27:25.053Z,19.78
2019-04-29T04:28:25.048Z,19.79
2019-04-29T04:29:25.018Z,19.92
2019-04-29T04:30:25.034Z,20.02
2019-04-29T04:31:25.002Z,20.08
2019-04-29T04:32:24.989Z,20.17
2019-04-29T04:33:24.984Z,20.26
2019-04-29T04:34:24.971Z,20.36
2019-04-29T04:35:25.052Z,20.44
2019-04-29T04:36:24.947Z,20.55
2019-04-29T04:37:24.938Z,20.70
2019-04-29T04:38:24.935Z,20.80
2019-04-29T04:39:25.048Z,20.77
2019-04-29T04:40:24.946Z,20.85
2019-04-29T04:41:24.899Z,20.86
2019-04-29T04:42:24.998Z,20.98
2019-04-29T04:43:24.876Z,20.93
2019-04-29T04:44:24.890Z,21.03
2019-04-29T04:45:24.857Z,21.13
2019-04-29T04:46:24.854Z,21.07
2019-04-29T04:47:24.830Z,21.10
2019-04-29T04:48:24.820Z,21.14
2019-04-29T04:49:24.806Z,21.04
2019-04-29T04:50:24.809Z,21.07
2019-04-29T04:51:24.802Z,21.01
2019-04-29T04:52:24.786Z,21.03
2019-04-29T04:53:24.765Z,20.98
2019-04-29T04:54:24.760Z,21.03
2019-04-29T04:55:24.740Z,20.96
2019-04-29T04:56:24.742Z,21.00
2019-04-29T04:57:24.719Z,20.86
2019-04-29T04:58:24.713Z,20.93
2019-04-29T04:59:24.696Z,20.83
2019-04-29T05:00:24.688Z,20.92
2019-04-29T05:01:24.685Z,20.77
2019-04-29T05:02:24.663Z,20.78
2019-04-29T05:03:24.655Z,20.82
2019-04-29T05:04:24.642Z,20.75
2019-04-29T05:05:24.631Z,20.75
2019-04-29T05:06:24.632Z,20.59
2019-04-29T05:07:24.612Z,20.58
2019-04-29T05:08:24.599Z,20.59
2019-04-29T05:09:24.591Z,20.56
2019-04-29T05:10:24.598Z,20.53
2019-04-29T05:11:24.620Z,20.53
2019-04-29T05:12:24.550Z,20.52
2019-04-29T05:13:28.283Z,20.50
2019-04-29T05:14:24.540Z,20.48
2019-04-29T05:15:24.525Z,20.48
2019-04-29T05:16:24.535Z,20.53
2019-04-29T05:17:24.536Z,20.44
2019-04-29T05:18:24.491Z,20.44
2019-04-29T05:19:24.480Z,20.48
2019-04-29T05:20:24.471Z,20.44
2019-04-29T05:21:24.472Z,20.44
2019-04-29T05:22:24.453Z,20.42
2019-04-29T05:23:24.438Z,20.39
2019-04-29T05:24:24.428Z,20.42
2019-04-29T05:25:24.416Z,20.39
2019-04-29T05:26:24.419Z,20.39
2019-04-29T05:27:24.395Z,20.48
2019-04-29T05:28:24.380Z,20.49
2019-04-29T05:29:24.372Z,20.44
2019-04-29T05:30:24.366Z,20.34
2019-04-29T05:31:24.398Z,20.33
2019-04-29T05:32:24.348Z,20.22
2019-04-29T05:33:24.324Z,20.37
2019-04-29T05:34:24.323Z,20.30
2019-04-29T05:35:24.898Z,20.42
2019-04-29T05:36:24.307Z,20.29
2019-04-29T05:37:24.298Z,20.26
2019-04-29T05:38:24.277Z,20.27
2019-04-29T05:39:24.300Z,20.29
2019-04-29T05:40:24.267Z,20.32
2019-04-29T05:41:24.239Z,20.26
2019-04-29T05:42:24.265Z,20.22
2019-04-29T05:43:26.971Z,20.17
2019-04-29T05:44:25.213Z,20.15
2019-04-29T05:45:24.199Z,20.11
2019-04-29T05:46:24.187Z,20.08
2019-04-29T05:47:24.189Z,20.10
2019-04-29T05:48:27.706Z,20.03
2019-04-29T05:49:25.155Z,20.02
2019-04-29T05:50:24.150Z,20.02
2019-04-29T05:51:27.201Z,20.00
2019-04-29T05:52:24.138Z,20.02
2019-04-29T05:53:24.115Z,19.97
2019-04-29T05:54:27.027Z,19.90
2019-04-29T05:55:25.086Z,19.92
2019-04-29T05:56:24.109Z,19.93
2019-04-29T05:57:25.412Z,19.79
2019-04-29T05:58:24.057Z,19.84
2019-04-29T05:59:24.052Z,19.82
2019-04-29T06:00:24.306Z,19.87
2019-04-29T06:01:24.027Z,19.78
2019-04-29T06:02:33.178Z,19.75
2019-04-29T06:03:25.036Z,19.81
2019-04-29T06:04:23.991Z,19.81
2019-04-29T06:05:23.980Z,19.79
2019-04-29T06:06:23.981Z,19.70
2019-04-29T06:07:26.754Z,19.74
2019-04-29T06:08:23.948Z,19.77
2019-04-29T06:09:23.941Z,19.70
2019-04-29T06:10:24.786Z,19.75
2019-04-29T06:11:23.926Z,19.75
2019-04-29T06:12:23.916Z,19.77
2019-04-29T06:13:23.920Z,19.72
2019-04-29T06:14:23.884Z,19.72
2019-04-29T06:15:23.875Z,19.74
2019-04-29T06:16:23.860Z,19.79
2019-04-29T06:17:23.927Z,19.75
2019-04-29T06:18:23.908Z,19.74
2019-04-29T06:19:23.836Z,19.72
2019-04-29T06:20:23.813Z,19.66
2019-04-29T06:21:23.807Z,19.72
2019-04-29T06:22:23.817Z,19.71
2019-04-29T06:23:24.308Z,19.74
2019-04-29T06:24:23.776Z,19.74
2019-04-29T06:25:23.784Z,19.71
2019-04-29T06:26:23.752Z,19.70
2019-04-29T06:27:23.755Z,19.59
2019-04-29T06:28:26.521Z,19.55
2019-04-29T06:29:23.728Z,19.53
2019-04-29T06:30:23.708Z,19.64
2019-04-29T06:31:23.693Z,19.64
2019-04-29T06:32:24.904Z,19.56
2019-04-29T06:33:24.225Z,19.63
2019-04-29T06:34:23.667Z,19.77
2019-04-29T06:35:23.650Z,19.79
2019-04-29T06:36:23.641Z,19.59
2019-04-29T06:37:23.656Z,19.66
2019-04-29T06:38:23.617Z,19.56
2019-04-29T06:39:23.630Z,19.67
2019-04-29T06:40:23.602Z,19.60
2019-04-29T06:41:23.588Z,19.66
2019-04-29T06:42:23.573Z,19.71
2019-04-29T06:43:24.686Z,19.64
2019-04-29T06:44:23.555Z,19.63
2019-04-29T06:45:23.543Z,19.71
2019-04-29T06:46:23.553Z,19.75
2019-04-29T06:47:23.653Z,19.74
2019-04-29T06:48:23.540Z,19.77
2019-04-29T06:49:23.512Z,19.72
2019-04-29T06:50:23.500Z,19.75
2019-04-29T06:51:23.483Z,19.78
2019-04-29T06:52:23.511Z,19.72
2019-04-29T06:53:23.484Z,19.84
2019-04-29T06:54:23.450Z,19.81
2019-04-29T06:55:23.441Z,19.78
2019-04-29T06:56:23.431Z,19.79
2019-04-29T06:57:23.462Z,19.84
2019-04-29T06:58:23.472Z,19.85
2019-04-29T06:59:23.467Z,19.87
2019-04-29T07:00:24.034Z,19.81
2019-04-29T07:01:23.421Z,19.82
2019-04-29T07:02:23.396Z,19.82
2019-04-29T07:03:25.580Z,19.81
2019-04-29T07:04:23.365Z,19.77
2019-04-29T07:05:23.394Z,19.81
2019-04-29T07:06:23.379Z,19.79
2019-04-29T07:07:23.328Z,19.79
2019-04-29T07:08:23.344Z,19.84
2019-04-29T07:09:23.299Z,19.81
2019-04-29T07:10:27.029Z,19.81
2019-04-29T07:11:23.353Z,19.78
2019-04-29T07:12:23.267Z,19.81
2019-04-29T07:13:24.606Z,19.79
2019-04-29T07:14:23.247Z,19.67
2019-04-29T07:15:23.256Z,19.74
2019-04-29T07:16:27.276Z,19.75
2019-04-29T07:17:24.214Z,19.74
2019-04-29T07:18:23.236Z,19.70
2019-04-29T07:19:26.759Z,19.67
2019-04-29T07:20:24.214Z,19.75
2019-04-29T07:21:23.172Z,19.62
2019-04-29T07:22:25.868Z,19.64
2019-04-29T07:23:23.177Z,19.64
2019-04-29T07:24:23.190Z,19.60
2019-04-29T07:25:24.782Z,19.60
2019-04-29T07:26:24.212Z,19.64
2019-04-29T07:27:23.113Z,19.49
2019-04-29T07:28:23.117Z,19.48
2019-04-29T07:29:29.826Z,19.52
2019-04-29T07:30:24.070Z,19.42
2019-04-29T07:31:23.069Z,19.49
2019-04-29T07:32:23.052Z,19.55
2019-04-29T07:33:24.525Z,19.49
2019-04-29T07:34:23.030Z,19.60
2019-04-29T07:35:23.027Z,19.57
2019-04-29T07:36:23.903Z,19.66
2019-04-29T07:37:23.002Z,19.70
2019-04-29T07:38:23.013Z,19.72
2019-04-29T07:39:26.807Z,19.70
2019-04-29T07:40:23.969Z,19.84
2019-04-29T07:41:22.957Z,19.84
2019-04-29T07:42:25.135Z,19.90
2019-04-29T07:43:23.965Z,19.93
2019-04-29T07:44:22.923Z,19.93
2019-04-29T07:45:23.783Z,19.89
2019-04-29T07:46:22.905Z,19.87
2019-04-29T07:47:24.957Z,19.84
2019-04-29T07:48:23.881Z,19.81
2019-04-29T07:49:22.904Z,19.84
2019-04-29T07:50:26.617Z,19.79
2019-04-29T07:51:23.859Z,19.81
2019-04-29T07:52:22.838Z,19.82
2019-04-29T07:53:34.346Z,19.92
2019-04-29T07:54:23.838Z,19.96
2019-04-29T07:55:25.968Z,19.94
2019-04-29T07:56:23.799Z,20.08
2019-04-29T07:57:22.827Z,20.14
2019-04-29T07:58:22.967Z,20.29
2019-04-29T07:59:22.788Z,20.37
2019-04-29T08:00:22.760Z,20.55
2019-04-29T08:01:24.421Z,20.59
2019-04-29T08:02:22.739Z,20.67
2019-04-29T08:03:22.732Z,20.74
2019-04-29T08:04:22.733Z,20.77
2019-04-29T08:05:22.706Z,20.80
2019-04-29T08:06:22.702Z,20.83
2019-04-29T08:07:22.689Z,20.85
2019-04-29T08:08:22.875Z,20.78
2019-04-29T08:09:22.680Z,20.85
2019-04-29T08:10:23.935Z,20.83
2019-04-29T08:11:22.643Z,20.78
2019-04-29T08:12:22.634Z,20.80
2019-04-29T08:13:22.623Z,20.77
2019-04-29T08:14:22.631Z,20.85
2019-04-29T08:15:22.600Z,20.70
2019-04-29T08:16:22.588Z,20.71
2019-04-29T08:17:22.581Z,20.71
2019-04-29T08:18:22.567Z,20.74
2019-04-29T08:19:24.662Z,20.68
2019-04-29T08:20:23.559Z,20.64
2019-04-29T08:21:22.568Z,20.63
2019-04-29T08:22:23.061Z,20.56
2019-04-29T08:23:23.526Z,20.63
2019-04-29T08:24:22.523Z,20.56
2019-04-29T08:25:26.066Z,20.58
2019-04-29T08:26:22.486Z,20.58
2019-04-29T08:27:22.472Z,20.55
2019-04-29T08:28:22.463Z,20.53
2019-04-29T08:29:22.467Z,20.53
2019-04-29T08:30:22.437Z,20.52
2019-04-29T08:31:22.440Z,20.56
2019-04-29T08:32:22.432Z,20.49
2019-04-29T08:33:22.406Z,20.37
2019-04-29T08:34:23.146Z,20.48
2019-04-29T08:35:22.389Z,20.42
2019-04-29T08:36:22.376Z,20.40
2019-04-29T08:37:24.829Z,20.40
2019-04-29T08:38:22.351Z,20.34
2019-04-29T08:39:24.996Z,20.34
2019-04-29T08:40:23.326Z,20.34
2019-04-29T08:41:28.494Z,20.26
2019-04-29T08:42:23.309Z,20.24
2019-04-29T08:43:22.482Z,20.27
2019-04-29T08:44:22.305Z,20.29
2019-04-29T08:45:22.276Z,20.29
2019-04-29T08:46:22.272Z,20.24
2019-04-29T08:47:23.024Z,20.21
2019-04-29T08:48:23.245Z,20.21
2019-04-29T08:49:22.246Z,20.18
2019-04-29T08:50:22.224Z,20.15
2019-04-29T08:51:22.213Z,20.19
2019-04-29T08:52:22.203Z,20.18
2019-04-29T08:53:22.222Z,20.11
2019-04-29T08:54:22.188Z,20.14
2019-04-29T08:55:22.178Z,20.10
2019-04-29T08:56:22.182Z,20.10
2019-04-29T08:57:22.145Z,20.11
2019-04-29T08:58:22.196Z,20.07
2019-04-29T08:59:24.572Z,20.04
2019-04-29T09:00:22.142Z,20.03
2019-04-29T09:01:24.645Z,20.04
2019-04-29T09:02:34.397Z,19.99
2019-04-29T09:03:24.312Z,19.99
2019-04-29T09:04:22.137Z,20.03
2019-04-29T09:05:22.098Z,19.97
2019-04-29T09:06:22.063Z,20.07
2019-04-29T09:07:23.143Z,19.96
2019-04-29T09:08:22.151Z,20.02
2019-04-29T09:09:29.343Z,19.99
2019-04-29T09:10:23.010Z,19.97
2019-04-29T09:11:22.002Z,19.99
2019-04-29T09:12:24.174Z,20.00
2019-04-29T09:13:21.978Z,19.99
2019-04-29T09:14:21.983Z,19.99
2019-04-29T09:15:21.955Z,19.99
2019-04-29T09:16:21.959Z,20.03
2019-04-29T09:17:21.947Z,19.96
2019-04-29T09:18:21.921Z,20.02
2019-04-29T09:19:21.940Z,19.96
2019-04-29T09:20:21.895Z,20.03
2019-04-29T09:21:21.930Z,19.93
2019-04-29T09:22:21.876Z,19.99
2019-04-29T09:23:21.881Z,19.97
2019-04-29T09:24:21.872Z,19.87
2019-04-29T09:25:26.100Z,19.94
2019-04-29T09:26:24.239Z,20.00
2019-04-29T09:27:21.880Z,20.03
2019-04-29T09:28:26.967Z,19.90
2019-04-29T09:29:22.855Z,19.93
2019-04-29T09:30:21.839Z,19.90
2019-04-29T09:31:21.772Z,19.90
2019-04-29T09:32:21.764Z,19.97
2019-04-29T09:33:21.768Z,19.92
2019-04-29T09:34:24.576Z,19.93
2019-04-29T09:35:21.763Z,19.92
2019-04-29T09:36:21.730Z,19.90
2019-04-29T09:37:22.941Z,19.96
2019-04-29T09:38:21.695Z,19.89
2019-04-29T09:39:21.687Z,19.81
2019-04-29T09:40:21.691Z,19.93
2019-04-29T09:41:21.670Z,19.85
2019-04-29T09:42:21.674Z,19.89
2019-04-29T09:43:25.969Z,19.84
2019-04-29T09:44:22.646Z,19.79
2019-04-29T09:45:24.365Z,19.79
2019-04-29T09:46:21.612Z,19.81
2019-04-29T09:47:21.609Z,19.78
2019-04-29T09:48:21.593Z,19.72
2019-04-29T09:49:21.614Z,19.75
2019-04-29T09:50:21.598Z,19.70
2019-04-29T09:51:22.622Z,19.70
2019-04-29T09:52:22.547Z,19.70
2019-04-29T09:53:21.547Z,19.77
2019-04-29T09:54:21.584Z,19.67
2019-04-29T09:55:21.593Z,19.70
2019-04-29T09:56:21.549Z,19.62
2019-04-29T09:57:21.570Z,19.63
2019-04-29T09:58:21.563Z,19.62
2019-04-29T09:59:21.488Z,19.62
2019-04-29T10:00:21.546Z,19.60
2019-04-29T10:01:21.475Z,19.63
2019-04-29T10:02:21.481Z,19.63
2019-04-29T10:03:21.434Z,19.62
2019-04-29T10:04:21.455Z,19.64
2019-04-29T10:05:21.442Z,19.64
2019-04-29T10:06:21.406Z,19.63
2019-04-29T10:07:21.397Z,19.66
2019-04-29T10:08:21.438Z,19.66
2019-04-29T10:09:21.405Z,19.62
2019-04-29T10:10:21.411Z,19.63
2019-04-29T10:11:21.483Z,19.70
2019-04-29T10:12:21.377Z,19.72
2019-04-29T10:13:21.433Z,19.81
2019-04-29T10:14:21.332Z,20.00
2019-04-29T10:15:21.359Z,20.22
2019-04-29T10:16:21.368Z,20.40
2019-04-29T10:17:21.293Z,20.55
2019-04-29T10:18:24.957Z,20.82
2019-04-29T10:19:22.321Z,20.96
2019-04-29T10:20:21.279Z,21.29
2019-04-29T10:21:22.999Z,21.53
2019-04-29T10:22:21.237Z,21.66
2019-04-29T10:23:21.247Z,21.85
2019-04-29T10:24:21.258Z,21.99
2019-04-29T10:25:21.223Z,22.12
2019-04-29T10:26:21.219Z,22.33
2019-04-29T10:27:21.175Z,22.36
2019-04-29T10:28:21.157Z,22.44
2019-04-29T10:29:21.167Z,22.46
2019-04-29T10:30:21.176Z,22.41
2019-04-29T10:31:22.423Z,22.56
2019-04-29T10:32:21.114Z,22.43
2019-04-29T10:33:23.016Z,22.51
2019-04-29T10:34:21.136Z,22.43
2019-04-29T10:35:21.093Z,22.28
2019-04-29T10:36:21.873Z,22.25
2019-04-29T10:37:23.733Z,22.16
2019-04-29T10:38:22.058Z,22.19
2019-04-29T10:39:22.687Z,22.15
2019-04-29T10:40:21.021Z,22.07
2019-04-29T10:41:21.007Z,21.96
2019-04-29T10:42:22.945Z,21.91
2019-04-29T10:43:20.993Z,21.75
2019-04-29T10:44:21.050Z,21.66
2019-04-29T10:45:20.971Z,21.63
2019-04-29T10:46:20.959Z,21.44
2019-04-29T10:47:21.013Z,21.40
2019-04-29T10:48:20.989Z,21.26
2019-04-29T10:49:20.932Z,21.22
2019-04-29T10:50:23.678Z,21.13
2019-04-29T10:51:23.205Z,21.03
2019-04-29T10:52:21.907Z,21.03
2019-04-29T10:53:20.912Z,20.96
2019-04-29T10:54:20.871Z,20.96
2019-04-29T10:55:20.868Z,20.93
2019-04-29T10:56:20.850Z,20.90
2019-04-29T10:57:20.894Z,20.83
2019-04-29T10:58:22.519Z,20.89
2019-04-29T10:59:34.980Z,20.80
2019-04-29T11:00:23.397Z,20.80
2019-04-29T11:01:20.796Z,20.78
2019-04-29T11:02:20.806Z,20.80
2019-04-29T11:03:20.897Z,20.85
2019-04-29T11:04:20.760Z,20.85
2019-04-29T11:05:20.814Z,20.83
2019-04-29T11:06:20.740Z,20.80
2019-04-29T11:07:26.354Z,20.78
2019-04-29T11:08:21.724Z,20.78
2019-04-29T11:09:20.725Z,20.77
2019-04-29T11:10:25.249Z,20.80
2019-04-29T11:11:23.399Z,20.73
2019-04-29T11:12:21.698Z,20.70
2019-04-29T11:13:20.661Z,20.75
2019-04-29T11:14:20.661Z,20.67
2019-04-29T11:15:20.651Z,20.56
2019-04-29T11:16:22.809Z,20.56
2019-04-29T11:17:21.678Z,20.60
2019-04-29T11:18:23.378Z,20.55
2019-04-29T11:19:20.598Z,20.56
2019-04-29T11:20:21.557Z,20.56
2019-04-29T11:21:20.603Z,20.55
2019-04-29T11:22:20.613Z,20.55
2019-04-29T11:23:20.554Z,20.52
2019-04-29T11:24:20.547Z,20.49
2019-04-29T11:25:20.529Z,20.48
2019-04-29T11:26:20.527Z,20.48
2019-04-29T11:27:20.515Z,20.48
2019-04-29T11:28:20.517Z,20.48
2019-04-29T11:29:22.229Z,20.50
2019-04-29T11:30:21.482Z,20.49
2019-04-29T11:31:20.468Z,20.42
2019-04-29T11:32:20.453Z,20.37
2019-04-29T11:33:20.458Z,20.49
2019-04-29T11:34:20.449Z,20.40
2019-04-29T11:35:20.423Z,20.48
2019-04-29T11:36:20.415Z,20.37
2019-04-29T11:37:20.400Z,20.40
2019-04-29T11:38:20.405Z,20.42
2019-04-29T11:39:20.384Z,20.36
2019-04-29T11:40:24.492Z,20.39
2019-04-29T11:41:21.356Z,20.36
2019-04-29T11:42:20.364Z,20.36
2019-04-29T11:43:20.355Z,20.36
2019-04-29T11:44:21.854Z,20.36
2019-04-29T11:45:21.330Z,20.34
2019-04-29T11:46:21.150Z,20.36
2019-04-29T11:47:21.024Z,20.34
2019-04-29T11:48:20.297Z,20.34
2019-04-29T11:49:20.280Z,20.30
2019-04-29T11:50:20.269Z,20.27
2019-04-29T11:51:20.255Z,20.34
2019-04-29T11:52:23.752Z,20.26
2019-04-29T11:53:21.241Z,20.24
2019-04-29T11:54:20.221Z,20.30
2019-04-29T11:55:20.291Z,20.29
2019-04-29T11:56:20.204Z,20.27
2019-04-29T11:57:20.218Z,20.26
2019-04-29T11:58:20.188Z,20.32
2019-04-29T11:59:20.216Z,20.27
2019-04-29T12:00:20.155Z,20.30
2019-04-29T12:01:20.143Z,20.22
2019-04-29T12:02:24.312Z,20.17
2019-04-29T12:03:21.132Z,20.26
2019-04-29T12:04:20.110Z,20.12
2019-04-29T12:05:20.096Z,20.14
2019-04-29T12:06:20.918Z,20.15
2019-04-29T12:07:21.238Z,20.17
2019-04-29T12:08:20.085Z,20.18
2019-04-29T12:09:20.067Z,20.19
2019-04-29T12:10:20.055Z,20.17
2019-04-29T12:11:20.100Z,20.17
2019-04-29T12:12:20.035Z,20.22
2019-04-29T12:13:27.093Z,20.18
2019-04-29T12:14:21.005Z,20.17
2019-04-29T12:15:19.991Z,20.21
2019-04-29T12:16:24.532Z,20.21
2019-04-29T12:17:20.977Z,20.18
2019-04-29T12:18:20.010Z,20.18
2019-04-29T12:19:21.382Z,20.19
2019-04-29T12:20:19.939Z,20.17
2019-04-29T12:21:19.930Z,20.15
2019-04-29T12:22:30.033Z,20.15
2019-04-29T12:23:20.923Z,20.15
2019-04-29T12:24:19.902Z,20.17
2019-04-29T12:25:23.025Z,20.14
2019-04-29T12:26:20.873Z,20.19
2019-04-29T12:27:21.624Z,20.17
2019-04-29T12:28:19.888Z,20.19
2019-04-29T12:29:19.905Z,20.18
2019-04-29T12:30:19.827Z,20.17
2019-04-29T12:31:19.820Z,20.15
2019-04-29T12:32:20.556Z,20.10
2019-04-29T12:33:19.806Z,20.21
2019-04-29T12:34:19.808Z,20.17
2019-04-29T12:35:21.569Z,20.14
2019-04-29T12:36:19.770Z,20.18
2019-04-29T12:37:19.751Z,20.21
2019-04-29T12:38:19.738Z,20.21
2019-04-29T12:39:34.090Z,20.14
2019-04-29T12:40:20.743Z,20.24
2019-04-29T12:41:21.249Z,20.15
2019-04-29T12:42:19.703Z,20.21
2019-04-29T12:43:19.702Z,20.26
2019-04-29T12:44:19.696Z,20.27
2019-04-29T12:45:19.960Z,20.24
2019-04-29T12:46:19.657Z,20.26
2019-04-29T12:47:26.917Z,20.27
2019-04-29T12:48:25.974Z,20.26
2019-04-29T12:49:20.634Z,20.22
2019-04-29T12:50:21.780Z,20.26
2019-04-29T12:51:19.602Z,20.27
2019-04-29T12:52:19.586Z,20.24